CheckWX is a tool to help pilots better visualize weather data.  It is not intended as a substitute for an official pre-flight weather briefing.

22:39:50 UTC

ENQR METAR
Snorre B Oilp
Snorre B Oilp, Norway
Current

20 mins ago

ENQR 082220Z AUTO 26017KT 9999NDV FEW018/// BKN040/// BKN100/// 12/08 Q1012 W///S4
Observed
Jul-8 @ 22:20 UTC
Wind
  • 260° at 17 KTS
Visibility
Cloud Levels
  • Few at 1,800' AGL
  • Broken at 4,000' AGL
  • Broken at 10,000' AGL
Temperature
12°C / 54°F
Dewpoint
C / 46°F
Humidity
77%
Altimeter
29.88" Hg
Pressure
1011.92 hPa
Previous

50 mins ago

ENQR 082150Z AUTO 27016KT 9999NDV FEW016/// 12/08 Q1012 W///S4
Observed
Jul-8 @ 21:50 UTC
Wind
  • 270° at 16 KTS
Visibility
Cloud Levels
  • Few at 1,600' AGL
Temperature
12°C / 54°F
Dewpoint
C / 46°F
Humidity
77%
Altimeter
29.88" Hg
Pressure
1011.92 hPa
Previous

1 hour ago

ENQR 082120Z AUTO 27016KT 9999NDV FEW018/// BKN100/// 12/08 Q1012 W///S4
Observed
Jul-8 @ 21:20 UTC
Wind
  • 270° at 16 KTS
Visibility
Cloud Levels
  • Few at 1,800' AGL
  • Broken at 10,000' AGL
Temperature
12°C / 54°F
Dewpoint
C / 46°F
Humidity
77%
Altimeter
29.88" Hg
Pressure
1011.92 hPa